Depesze METAR lotnisk w Polsce

EPWA EPMO EPKK EPLL EPWR EPKT EPGD EPPO EPRZ EPSC EPLB EPBY EPZG EPSY EPCE EPDA EPDE EPIR EPKS EPLK EPLY EPMB EPMI EPMM EPNA EPOK EPPR EPPW EPRA EPSN EPTM

METAR – format kodowanego raportu o pogodzie używany w meteorologii lotniczej i prognozie pogody. METAR jest akronimem od ang. Meteorological Aerodrome Report. Typowy METAR zawiera informację o temperaturze, ciśnieniu, temperaturze punktu rosy, sile i kierunku wiatru, opadzie, pokrywie chmur, wysokości podstawy chmur, widzialności, lecz może zawierać też inne informacje (np. stan dróg startowych).

Postaw mi kawę na buycoffee.to

Warszawa-Okęcie (EPWA)

METAR = EPWA 200000Z 24004KT 200V270 CAVOK 22/17 Q1013 NOSIG

STACJA........... EPWA - Warszawa-Okęcie (WAW)
POMIAR........... Sat Aug 20, 02:00 CEST
WIATR............ zachodni południowo-zachodni (WSW) z prędkością 7 km/h
WIDZIALNOŚĆ...... powyżej 10 kilometrów
CHMURY........... bezchmurne niebo
TEMPERATURA...... 22°C
T.PUNKTU ROSY.... 17°C
WILGOTNOŚĆ....... 73%
CIŚNIENIE........ 1013 hPa
CIŚN.BEZWZGL..... 1000 hPa
PROGNOZA......... bez nagłych zmian w ciągu 2h

Sprawdź też: Prognoza pogody Warszawa


Warszawa-Modlin (EPMO)

METAR = EPMO 200000Z 36004KT 300V030 CAVOK 23/17 Q1013 =

STACJA........... EPMO - Warszawa-Modlin (WMI)
POMIAR........... Sat Aug 20, 02:00 CEST
WIATR............ północny (N) z prędkością 7 km/h
WIDZIALNOŚĆ...... powyżej 10 kilometrów
CHMURY........... bezchmurne niebo
TEMPERATURA...... 23°C
T.PUNKTU ROSY.... 17°C
WILGOTNOŚĆ....... 69%
CIŚNIENIE........ 1013 hPa
CIŚN.BEZWZGL..... 1001 hPa

Sprawdź też: Prognoza pogody Nowy Dwór Mazowiecki


Kraków-Balice (EPKK)

METAR = EPKK 200000Z 29003KT 210V020 CAVOK 21/19 Q1013

STACJA........... EPKK - Kraków-Balice (KRK)
POMIAR........... Sat Aug 20, 02:00 CEST
WIATR............ zachodni północno-zachodni (WNW) z prędkością 6 km/h
WIDZIALNOŚĆ...... powyżej 10 kilometrów
CHMURY........... bezchmurne niebo
TEMPERATURA...... 21°C
T.PUNKTU ROSY.... 19°C
WILGOTNOŚĆ....... 88%
CIŚNIENIE........ 1013 hPa
CIŚN.BEZWZGL..... 985 hPa

Sprawdź też: Prognoza pogody Kraków


Łódź-Lublinek (EPLL)

METAR = EPLL 200000Z 21006KT 080V240 CAVOK 22/20 Q1013

STACJA........... EPLL - Łódź-Lublinek (LCJ)
POMIAR........... Sat Aug 20, 02:00 CEST
WIATR............ południowo południowo-zachodni  (SSW) z prędkością 11 km/h
WIDZIALNOŚĆ...... powyżej 10 kilometrów
CHMURY........... bezchmurne niebo
TEMPERATURA...... 22°C
T.PUNKTU ROSY.... 20°C
WILGOTNOŚĆ....... 88%
CIŚNIENIE........ 1013 hPa
CIŚN.BEZWZGL..... 992 hPa

Sprawdź też: Prognoza pogody Łódź


Wrocław-Strachowice (EPWR)

METAR = EPWR 200000Z 34005KT 310V010 CAVOK 20/18 Q1011

STACJA........... EPWR - Wrocław-Strachowice (WRO)
POMIAR........... Sat Aug 20, 02:00 CEST
WIATR............ północno północno-zachodni (NNW) z prędkością 9 km/h
WIDZIALNOŚĆ...... powyżej 10 kilometrów
CHMURY........... bezchmurne niebo
TEMPERATURA...... 20°C
T.PUNKTU ROSY.... 18°C
WILGOTNOŚĆ....... 88%
CIŚNIENIE........ 1011 hPa
CIŚN.BEZWZGL..... 997 hPa

Sprawdź też: Prognoza pogody Wrocław


Katowice-Pyrzowice (EPKT)

METAR = EPKT 200000Z VRB02KT 9999 FEW050CB 20/20 Q1013

STACJA........... EPKT - Katowice-Pyrzowice (KTW)
POMIAR........... Sat Aug 20, 02:00 CEST
WIATR............ zmienny z prędkością 4 km/h
WIDZIALNOŚĆ...... powyżej 10 kilometrów
CHMURY........... zachmurzenie niewielkie (1/8-2/8)
TEMPERATURA...... 20°C
T.PUNKTU ROSY.... 20°C
WILGOTNOŚĆ....... 100%
CIŚNIENIE........ 1013 hPa
CIŚN.BEZWZGL..... 978 hPa

Sprawdź też: Prognoza pogody Katowice


Gdańsk (EPGD)

METAR = EPGD 200000Z 16004KT 140V200 CAVOK 25/18 Q1010

STACJA........... EPGD - Gdańsk im. Lecha Wałęsy (GDN)
POMIAR........... Sat Aug 20, 02:00 CEST
WIATR............ południowo południowo-wschodni (SSE) z prędkością 7 km/h
WIDZIALNOŚĆ...... powyżej 10 kilometrów
CHMURY........... bezchmurne niebo
TEMPERATURA...... 25°C
T.PUNKTU ROSY.... 18°C
WILGOTNOŚĆ....... 65%
CIŚNIENIE........ 1010 hPa
CIŚN.BEZWZGL..... 993 hPa

Sprawdź też: Prognoza pogody Gdańsk


Poznań-Ławica (EPPO)

METAR = EPPO 200000Z VRB01KT 9999 BKN045 21/20 Q1011

STACJA........... EPPO - Poznań-Ławica (POZ)
POMIAR........... Sat Aug 20, 02:00 CEST
WIATR............ zmienny z prędkością 2 km/h
WIDZIALNOŚĆ...... powyżej 10 kilometrów
CHMURY........... zachmurzenie średnie (5/8-7/8)
TEMPERATURA...... 21°C
T.PUNKTU ROSY.... 20°C
WILGOTNOŚĆ....... 94%
CIŚNIENIE........ 1011 hPa
CIŚN.BEZWZGL..... 1000 hPa

Sprawdź też: Prognoza pogody Poznań


Rzeszów-Jasionka (EPRZ)

METAR = EPRZ 200000Z VRB02KT CAVOK 20/17 Q1012

STACJA........... EPRZ - Rzeszów-Jasionka (RZE)
POMIAR........... Sat Aug 20, 02:00 CEST
WIATR............ zmienny z prędkością 4 km/h
WIDZIALNOŚĆ...... powyżej 10 kilometrów
CHMURY........... bezchmurne niebo
TEMPERATURA...... 20°C
T.PUNKTU ROSY.... 17°C
WILGOTNOŚĆ....... 83%
CIŚNIENIE........ 1012 hPa
CIŚN.BEZWZGL..... 988 hPa

Sprawdź też: Prognoza pogody Rzeszów


Szczecin-Goleniów (EPSC)

METAR = EPSC 200000Z 22004KT 9999 OVC005 20/19 Q1011

STACJA........... EPSC - Szczecin-Goleniów (SZZ)
POMIAR........... Sat Aug 20, 02:00 CEST
WIATR............ południowo-zachodni (SW) z prędkością 7 km/h
WIDZIALNOŚĆ...... powyżej 10 kilometrów
CHMURY........... zachmurzenie całkowite (8/8)
TEMPERATURA...... 20°C
T.PUNKTU ROSY.... 19°C
WILGOTNOŚĆ....... 94%
CIŚNIENIE........ 1011 hPa
CIŚN.BEZWZGL..... 1006 hPa

Sprawdź też: Prognoza pogody Szczecin


Lublin-Świdnik (EPLB)

METAR = EPLB 200000Z 07004KT CAVOK 18/18 Q1013 =

STACJA........... EPLB - Lublin-Świdnik (LUZ)
POMIAR........... Sat Aug 20, 02:00 CEST
WIATR............ wschodni północno-wschodni (ENE) z prędkością 7 km/h
WIDZIALNOŚĆ...... powyżej 10 kilometrów
CHMURY........... bezchmurne niebo
TEMPERATURA...... 18°C
T.PUNKTU ROSY.... 18°C
WILGOTNOŚĆ....... 100%
CIŚNIENIE........ 1013 hPa
CIŚN.BEZWZGL..... 989 hPa

Sprawdź też: Prognoza pogody Lublin


Bydgoszcz-Szwederowo (EPBY)

METAR = EPBY 200000Z 27005KT 220V290 9000 NSC 22/20 Q1010=

STACJA........... EPBY - Bydgoszcz-Szwederowo (BZG)
POMIAR........... Sat Aug 20, 02:00 CEST
WIATR............ zachodni (W) z prędkością 9 km/h
WIDZIALNOŚĆ...... 9000 metrów
CHMURY........... brak istotnych chmur
TEMPERATURA...... 22°C
T.PUNKTU ROSY.... 20°C
WILGOTNOŚĆ....... 88%
CIŚNIENIE........ 1010 hPa
CIŚN.BEZWZGL..... 1002 hPa

Sprawdź też: Prognoza pogody Bydgoszcz


Zielona Góra-Babimost (EPZG)

METAR = EPZG 200000Z NIL=

STACJA........... EPZG - Zielona Góra-Babimost (IEG)
POMIAR........... Sat Aug 20, 02:00 CEST
DEPESZA.......... brak aktualnej prognozy w treści depeszy

Sprawdź też: Prognoza pogody Zielona Góra


Szymany Olsztyn-Mazury (EPSY)

METAR = EPSY 200000Z 14004KT 110V180 CAVOK 24/15 Q1014=

STACJA........... EPSY - Olsztyn-Mazury (SZY)
POMIAR........... Sat Aug 20, 02:00 CEST
WIATR............ południowo wschodni (SE) z prędkością 7 km/h
WIDZIALNOŚĆ...... powyżej 10 kilometrów
CHMURY........... bezchmurne niebo
TEMPERATURA...... 24°C
T.PUNKTU ROSY.... 15°C
WILGOTNOŚĆ....... 57%
CIŚNIENIE........ 1014 hPa
CIŚN.BEZWZGL..... 998 hPa

Sprawdź też: Prognoza pogody Olsztyn


Cewice (EPCE)

METAR = 

STACJA........... EPCE - Cewice
POMIAR........... Thu Jan 1, 03:00 CET
BŁĄD............. Dane niedostępne.

Darłowo (EPDA)

METAR = 

STACJA........... EPDA - Darłowo
POMIAR........... Thu Jan 1, 03:00 CET
BŁĄD............. Dane niedostępne.

Dęblin (EPDE)

METAR = 

STACJA........... EPDE - Dęblin
POMIAR........... Thu Jan 1, 03:00 CET
BŁĄD............. Dane niedostępne.

Inowrocław-Latkowo (EPIR)

METAR = 

STACJA........... EPIR - Inowrocław-Latkowo
POMIAR........... Thu Jan 1, 03:00 CET
BŁĄD............. Dane niedostępne.

Poznań-Krzesiny (EPKS)

METAR = 

STACJA........... EPKS - Poznań-Krzesiny
POMIAR........... Thu Jan 1, 03:00 CET
BŁĄD............. Dane niedostępne.

Łask (EPLK)

METAR = 

STACJA........... EPLK - Łask
POMIAR........... Thu Jan 1, 03:00 CET
BŁĄD............. Dane niedostępne.

Łęczyca (EPLY)

METAR = 

STACJA........... EPLY - Łęczyca
POMIAR........... Thu Jan 1, 03:00 CET
BŁĄD............. Dane niedostępne.

Malbork (EPMB)

METAR = 

STACJA........... EPMB - Malbork
POMIAR........... Thu Jan 1, 03:00 CET
BŁĄD............. Dane niedostępne.

Mirosławiec (EPMI)

METAR = 

STACJA........... EPMI - Mirosławiec
POMIAR........... Thu Jan 1, 03:00 CET
BŁĄD............. Dane niedostępne.

Mińsk Mazowiecki (EPMM)

METAR = 

STACJA........... EPMM - Mińsk Mazowiecki
POMIAR........... Thu Jan 1, 03:00 CET
BŁĄD............. Dane niedostępne.

Nadarzyce (EPNA)

METAR = 

STACJA........... EPNA - Nadarzyce
POMIAR........... Thu Jan 1, 03:00 CET
BŁĄD............. Dane niedostępne.

Gdynia-Kosakowo (EPOK)

METAR = 

STACJA........... EPOK - Gdynia-Kosakowo
POMIAR........... Thu Jan 1, 03:00 CET
BŁĄD............. Dane niedostępne.

Pruszcz Gdański (EPPR)

METAR = 

STACJA........... EPPR - Pruszcz Gdański
POMIAR........... Thu Jan 1, 03:00 CET
BŁĄD............. Dane niedostępne.

Powidz (EPPW)

METAR = 

STACJA........... EPPW - Powidz
POMIAR........... Thu Jan 1, 03:00 CET
BŁĄD............. Dane niedostępne.

Radom-Sadków (EPRA)

METAR = 

STACJA........... EPRA - Radom-Sadków
POMIAR........... Thu Jan 1, 03:00 CET
BŁĄD............. Dane niedostępne.

Świdwin (EPSN)

METAR = 

STACJA........... EPSN - Świdwin
POMIAR........... Thu Jan 1, 03:00 CET
BŁĄD............. Dane niedostępne.

Tomaszów Mazowiecki (EPTM)

METAR = 

STACJA........... EPTM - Tomaszów Mazowiecki
POMIAR........... Thu Jan 1, 03:00 CET
BŁĄD............. Dane niedostępne.